Share

Emporia, KS (66801)

East Emporia Kansas (KKSEMPOR3) Elev 1106 ft | 38.39 °N, 96.12 °W | Change Station

Current weather conditions updated 9 minutes ago

Haze
Haze
56.3 °F
Feels Like 56.3 °F
N
2.7
Wind Variable Wind from SSE
Sunrise 6:41 AM
Sunset 8:06 PM
Moon Waning Gibbous

Today is forecast to be nearly the same temperature as yesterday.

Pressure 30.06 in
Visibility 6.0 miles
Clouds Clear
Dew Point 51 °F
Humidity 82%
Rainfall 0.00 in
Snow Depth Not available.
UV 0 out of 16
Pollen 10.50 out of 12
Air Quality Not available.
Flu Activity No Activity
METAR KEMP 201153Z AUTO 17010KT 6SM HZ CLR 14/09 A3007 RMK AO2 SLP180 T01390089 10150 20128 55002

More Conditions Fewer Conditions

Pressure 30.06 in
Visibility 6.0 miles
Clouds Clear
Dew Point 51 °F
Humidity 82%
Rainfall 0.00 in
Snow Depth Not available.
UV 0 out of 16
Pollen 10.50 out of 12
Air Quality Not available.
Flu Activity No Activity
METAR KEMP 201153Z AUTO 17010KT 6SM HZ CLR 14/09 A3007 RMK AO2 SLP180 T01390089 10150 20128 55002

More Conditions Fewer Conditions

10-Day Weather Forecast

Almanac

Astronomy

Apr. 20, 2014 Rise Set
Actual Time 6:41 AM CDT 8:06 PM CDT
Civil Twilight 6:14 AM CDT 8:33 PM CDT
Nautical Twilight 5:41 AM CDT 9:07 PM CDT
Astronomical Twilight 5:06 AM CDT 9:42 PM CDT
Moon 12:45 AM CDT 11:05 AM CDT
Length of Visible Light 14h 19m
Length of Day
13h 24m
Tomorrow will be 2m 18s longer.
Waning Gibbous, 70% of the Moon is Illuminated
Today
Waning Gibbous
Apr 22
Last Quarter
Apr 29
New
May 6
First Quarter
May 14
Full

Today's Extremes

State Highs State Lows

Community

  • EARLY FOGGY MORNING
    EARLY FOGGY MORNING
  • Easter Greetings
    Easter Greetings
  • Sunny day at the coast-Cape Arago Lighthouse
    Sunny day at the coast-Cape Arago Lighthouse
  • Cherry Blossoms
    Cherry Blossoms
  • White-Crowned Sparrow
    White-Crowned Sparrow

WunderPhotos

Upload Photos

1,703,189 photos uploaded!

Nearby

Snow Depth

Station Depth Elevation
No new snow has been reported.

Coastal Water Temperatures

Place Temperature
No Stations Reporting

Earthquake Activity

City Distance Mag. Time & Date
No recent earthquake activity has been reported nearby.
Minimum magnitude displayed is 2.5.

Nearby Weather Stations

Station Location Temp. Dew Point Humidity Wind Precip. Elev Updated Type
East Emporia Kansas, Emporia, KS 56.3 °F 51 °F 82% SSE  at  2.7 mph - / hr 1106 ft 7:40 AM CDT Normal
T-K Weather Station West Hartford, Kansa, Hartford, KS 58.6 °F 51 °F 75% WSW  at  4.7 mph - / hr 1129 ft 7:49 AM CDT Normal
RAWS TALLGRASS PRAIRIE KS, Strong City, KS 60 °F 50 °F 69% South  at  6 mph 0.00 in / hr 1230 ft 6:30 AM CDT MADIS

Show More Stations Show Fewer Stations

What do you think?

We're not finished. Please let us know what you like, what you don't like, and what you are still missing.